createdAt,value
2023-04-02T00:02:26.751Z,99821.22
2023-04-02T00:05:31.069Z,99825.97
2023-04-02T00:08:00.535Z,99824.81
2023-04-02T00:10:30.813Z,99830.47
2023-04-02T00:13:05.715Z,99833.91
2023-04-02T00:15:34.316Z,99835.91
2023-04-02T00:18:02.503Z,99845.09
2023-04-02T00:20:31.758Z,99838.84
2023-04-02T00:22:59.437Z,99847.06
2023-04-02T00:25:27.921Z,99843.41
2023-04-02T00:27:55.914Z,99849.28
2023-04-02T00:30:24.829Z,99845.41
2023-04-02T00:32:52.784Z,99852.75
2023-04-02T00:35:22.319Z,99847.81
2023-04-02T00:37:50.468Z,99865.03
2023-04-02T00:40:21.968Z,99857.28
2023-04-02T00:42:50.277Z,99857.28
2023-04-02T00:45:25.456Z,99858.44
2023-04-02T00:47:53.833Z,99864.59
2023-04-02T00:50:28.918Z,99865.66
2023-04-02T00:52:58.217Z,99868.53
2023-04-02T00:55:29.099Z,99864.00
2023-04-02T00:57:57.235Z,99867.66
2023-04-02T01:00:30.671Z,99860.03
2023-04-02T01:03:34.259Z,99869.47
2023-04-02T01:06:05.006Z,99872.81
2023-04-02T01:08:45.462Z,99864.56
2023-04-02T01:11:23.254Z,99875.97
2023-04-02T01:13:55.232Z,99874.91
2023-04-02T01:16:30.399Z,99872.00
2023-04-02T01:19:03.318Z,99880.44
2023-04-02T01:21:37.937Z,99880.22
2023-04-02T01:24:07.100Z,99885.72
2023-04-02T01:26:45.658Z,99890.00
2023-04-02T01:29:15.932Z,99881.47
2023-04-02T01:31:45.632Z,99894.41
2023-04-02T01:34:16.374Z,99899.97
2023-04-02T01:36:50.233Z,99895.44
2023-04-02T01:39:26.749Z,99899.88
2023-04-02T01:42:00.227Z,99902.38
2023-04-02T01:44:31.900Z,99901.59
2023-04-02T01:47:03.750Z,99913.25
2023-04-02T01:49:31.199Z,99916.53
2023-04-02T01:51:58.636Z,99917.28
2023-04-02T01:54:28.784Z,99923.50
2023-04-02T01:56:57.283Z,99921.34
2023-04-02T01:59:24.844Z,99926.66
2023-04-02T02:01:58.569Z,99923.41
2023-04-02T02:04:26.258Z,99928.75
2023-04-02T02:06:53.845Z,99927.34
2023-04-02T02:09:24.057Z,99925.78
2023-04-02T02:11:51.847Z,99929.88
2023-04-02T02:14:20.912Z,99934.44
2023-04-02T02:16:48.790Z,99939.19
2023-04-02T02:19:25.800Z,99941.19
2023-04-02T02:21:54.438Z,99942.88
2023-04-02T02:24:23.359Z,99939.56
2023-04-02T02:27:02.313Z,99941.06
2023-04-02T02:29:30.618Z,99944.00
2023-04-02T02:31:58.911Z,99949.13
2023-04-02T02:34:32.556Z,99956.97
2023-04-02T02:37:03.705Z,99961.56
2023-04-02T02:39:36.102Z,99964.34
2023-04-02T02:42:06.719Z,99969.47
2023-04-02T02:44:36.266Z,99972.31
2023-04-02T02:47:06.369Z,99976.53
2023-04-02T02:49:37.481Z,99979.88
2023-04-02T02:52:14.890Z,99979.09
2023-04-02T02:54:45.315Z,99979.53
2023-04-02T02:57:15.507Z,99973.88
2023-04-02T02:59:43.745Z,99986.00
2023-04-02T03:02:11.817Z,99990.06
2023-04-02T03:04:40.630Z,99991.25
2023-04-02T03:07:09.199Z,99989.56
2023-04-02T03:09:40.237Z,99992.41
2023-04-02T03:12:22.259Z,100000.50
2023-04-02T03:14:54.310Z,100003.72
2023-04-02T03:17:24.969Z,100007.63
2023-04-02T03:19:56.867Z,100011.00
2023-04-02T03:22:29.701Z,100015.84
2023-04-02T03:25:00.789Z,100021.94
2023-04-02T03:27:32.326Z,100019.41
2023-04-02T03:30:06.703Z,100030.44
2023-04-02T03:32:36.721Z,100026.38
2023-04-02T03:35:18.975Z,100038.59
2023-04-02T03:37:49.293Z,100044.78
2023-04-02T03:40:18.824Z,100048.88
2023-04-02T03:42:50.721Z,100051.69
2023-04-02T03:45:21.337Z,100053.78
2023-04-02T03:47:54.238Z,100057.22
2023-04-02T03:50:27.830Z,100060.47
2023-04-02T03:52:55.615Z,100063.38
2023-04-02T03:55:25.956Z,100062.22
2023-04-02T03:57:58.616Z,100065.66
2023-04-02T04:00:34.178Z,100065.59
2023-04-02T04:03:08.139Z,100068.53
2023-04-02T04:05:38.707Z,100080.75
2023-04-02T04:08:08.541Z,100085.69
2023-04-02T04:10:36.393Z,100086.75
2023-04-02T04:13:06.910Z,100087.03
2023-04-02T04:15:36.615Z,100091.63
2023-04-02T04:18:11.473Z,100098.66
2023-04-02T04:20:45.905Z,100094.19
2023-04-02T04:23:19.907Z,100101.09
2023-04-02T04:25:49.350Z,100102.41
2023-04-02T04:28:24.071Z,100111.06
2023-04-02T04:30:54.124Z,100118.63
2023-04-02T04:33:24.534Z,100123.28
2023-04-02T04:35:56.108Z,100119.16
2023-04-02T04:38:32.642Z,100128.84
2023-04-02T04:41:04.229Z,100130.38
2023-04-02T04:43:38.542Z,100137.81
2023-04-02T04:46:09.425Z,100136.44
2023-04-02T04:48:38.144Z,100140.25
2023-04-02T04:51:10.231Z,100147.59
2023-04-02T04:53:47.366Z,100149.94
2023-04-02T04:56:19.803Z,100150.34
2023-04-02T04:58:50.046Z,100155.66
2023-04-02T05:01:20.791Z,100170.19
2023-04-02T05:03:53.073Z,100166.66
2023-04-02T05:06:27.011Z,100167.91
2023-04-02T05:08:56.772Z,100170.56
2023-04-02T05:11:27.656Z,100177.97
2023-04-02T05:13:57.979Z,100180.81
2023-04-02T05:16:27.637Z,100182.69
2023-04-02T05:18:59.206Z,100187.19
2023-04-02T05:21:34.270Z,100193.25
2023-04-02T05:24:14.797Z,100193.59
2023-04-02T05:26:44.980Z,100196.63
2023-04-02T05:29:17.075Z,100202.59
2023-04-02T05:31:48.677Z,100207.72
2023-04-02T05:34:23.479Z,100213.22
2023-04-02T05:36:52.389Z,100209.13
2023-04-02T05:39:23.082Z,100214.88
2023-04-02T05:41:58.828Z,100219.56
2023-04-02T05:44:28.143Z,100221.47
2023-04-02T05:46:58.364Z,100226.06
2023-04-02T05:49:28.604Z,100230.81
2023-04-02T05:51:59.826Z,100232.25
2023-04-02T05:54:30.226Z,100238.66
2023-04-02T05:57:01.880Z,100243.22
2023-04-02T05:59:31.265Z,100250.16
2023-04-02T06:02:03.426Z,100249.78
2023-04-02T06:04:34.243Z,100252.25
2023-04-02T06:07:07.049Z,100260.69
2023-04-02T06:09:41.489Z,100262.22
2023-04-02T06:12:18.597Z,100268.50
2023-04-02T06:14:46.636Z,100271.50
2023-04-02T06:17:16.172Z,100278.59
2023-04-02T06:19:43.936Z,100286.78
2023-04-02T06:22:20.185Z,100291.84
2023-04-02T06:24:51.358Z,100301.78
2023-04-02T06:27:22.589Z,100302.53
2023-04-02T06:29:52.826Z,100302.88
2023-04-02T06:32:22.144Z,100309.84
2023-04-02T06:34:49.773Z,100322.38
2023-04-02T06:37:23.331Z,100345.06
2023-04-02T06:39:50.785Z,100351.88
2023-04-02T06:42:20.789Z,100357.47
2023-04-02T06:44:48.396Z,100356.84
2023-04-02T06:47:23.722Z,100364.88
2023-04-02T06:49:53.659Z,100362.91
2023-04-02T06:52:27.017Z,100384.41
2023-04-02T06:54:54.525Z,100386.03
2023-04-02T06:57:22.030Z,100387.84
2023-04-02T06:59:49.676Z,100395.88
2023-04-02T07:02:29.323Z,100402.22
2023-04-02T07:05:02.841Z,100404.56
2023-04-02T07:07:32.132Z,100413.50
2023-04-02T07:09:59.604Z,100417.97
2023-04-02T07:12:27.641Z,100422.44
2023-04-02T07:14:55.408Z,100435.69
2023-04-02T07:17:22.923Z,100432.72
2023-04-02T07:19:50.624Z,100441.34
2023-04-02T07:22:18.463Z,100454.81
2023-04-02T07:24:47.480Z,100461.59
2023-04-02T07:27:15.972Z,100467.88
2023-04-02T07:29:43.536Z,100485.44
2023-04-02T07:32:11.661Z,100485.94
2023-04-02T07:34:39.206Z,100476.84
2023-04-02T07:37:06.863Z,100494.06
2023-04-02T07:39:36.540Z,100496.88
2023-04-02T07:42:07.888Z,100509.47
2023-04-02T07:44:35.730Z,100493.56
2023-04-02T07:47:03.360Z,100508.81
2023-04-02T07:49:30.922Z,100511.28
2023-04-02T07:51:58.420Z,100520.72
2023-04-02T07:54:27.069Z,100529.19
2023-04-02T07:56:54.699Z,100535.47
2023-04-02T07:59:23.605Z,100544.56
2023-04-02T08:01:53.008Z,100541.75
2023-04-02T08:04:22.057Z,100545.88
2023-04-02T08:06:50.464Z,100560.28
2023-04-02T08:09:19.134Z,100555.31
2023-04-02T08:11:46.790Z,100555.78
2023-04-02T08:14:14.949Z,100568.03
2023-04-02T08:16:48.686Z,100581.59
2023-04-02T08:19:16.557Z,100582.28
2023-04-02T08:21:44.116Z,100583.25
2023-04-02T08:24:11.643Z,100589.38
2023-04-02T08:26:39.266Z,100591.03
2023-04-02T08:29:06.717Z,100608.75
2023-04-02T08:31:34.312Z,100603.28
2023-04-02T08:34:03.281Z,100618.16
2023-04-02T08:36:32.153Z,100629.56
2023-04-02T08:38:59.717Z,100623.91
2023-04-02T08:41:28.504Z,100636.47
2023-04-02T08:44:10.017Z,100638.94
2023-04-02T08:46:42.299Z,100639.28
2023-04-02T08:49:14.010Z,100646.56
2023-04-02T08:51:41.628Z,100656.00
2023-04-02T08:54:17.352Z,100667.06
2023-04-02T08:56:50.174Z,100662.06
2023-04-02T08:59:24.447Z,100683.56
2023-04-02T09:01:57.452Z,100689.38
2023-04-02T09:04:26.583Z,100685.72
2023-04-02T09:06:56.618Z,100688.53
2023-04-02T09:09:24.765Z,100690.34
2023-04-02T09:11:55.310Z,100696.63
2023-04-02T09:14:26.325Z,100691.19
2023-04-02T09:16:55.304Z,100701.13
2023-04-02T09:19:24.650Z,100711.41
2023-04-02T09:22:08.957Z,100721.69
2023-04-02T09:24:37.501Z,100730.16
2023-04-02T09:27:05.029Z,100721.72
2023-04-02T09:29:46.340Z,100726.66
2023-04-02T09:32:28.760Z,100733.28
2023-04-02T09:35:24.788Z,100746.59
2023-04-02T09:38:17.411Z,100751.25
2023-04-02T09:40:47.677Z,100751.75
2023-04-02T09:43:17.530Z,100752.25
2023-04-02T09:45:46.037Z,100760.88
2023-04-02T09:48:22.808Z,100762.72
2023-04-02T09:50:50.426Z,100767.69
2023-04-02T09:53:29.324Z,100776.69
2023-04-02T09:56:10.602Z,100773.88
2023-04-02T09:58:38.214Z,100786.81
2023-04-02T10:01:08.458Z,100778.69
2023-04-02T10:03:36.572Z,100780.53
2023-04-02T10:06:11.342Z,100787.66
2023-04-02T10:08:42.276Z,100796.19
2023-04-02T10:11:11.982Z,100804.94
2023-04-02T10:13:44.841Z,100798.31
2023-04-02T10:16:14.438Z,100801.47
2023-04-02T10:18:46.531Z,100807.09
2023-04-02T10:21:17.074Z,100814.78
2023-04-02T10:23:46.347Z,100826.75
2023-04-02T10:26:23.713Z,100817.44
2023-04-02T10:29:06.763Z,100837.66
2023-04-02T10:31:41.026Z,100838.16
2023-04-02T10:34:14.013Z,100840.91
2023-04-02T10:36:50.513Z,100849.72
2023-04-02T10:39:21.258Z,100844.25
2023-04-02T10:41:53.269Z,100844.25
2023-04-02T10:44:31.120Z,100860.31
2023-04-02T10:47:15.874Z,100857.31
2023-04-02T10:49:44.715Z,100861.66
2023-04-02T10:52:17.538Z,100872.63
2023-04-02T10:54:50.572Z,100870.13
2023-04-02T10:57:25.941Z,100879.00
2023-04-02T10:59:57.408Z,100878.28
2023-04-02T11:02:35.933Z,100885.91
2023-04-02T11:05:11.827Z,100887.94
2023-04-02T11:07:50.855Z,100896.88
2023-04-02T11:10:20.755Z,100892.44
2023-04-02T11:12:53.255Z,100903.22
2023-04-02T11:15:20.928Z,100907.03
2023-04-02T11:17:49.013Z,100912.50
2023-04-02T11:20:57.195Z,100909.97
2023-04-02T11:23:28.333Z,100913.91
2023-04-02T11:26:31.028Z,100924.53
2023-04-02T11:29:26.014Z,100931.84
2023-04-02T11:32:21.689Z,100926.06
2023-04-02T11:35:20.728Z,100939.06
2023-04-02T11:37:48.265Z,100932.38
2023-04-02T11:40:42.043Z,100956.63
2023-04-02T11:43:47.007Z,100950.31
2023-04-02T11:46:49.010Z,100957.69
2023-04-02T11:49:41.975Z,100965.56
2023-04-02T11:52:22.669Z,100969.53
2023-04-02T11:54:57.755Z,100981.63
2023-04-02T11:57:35.640Z,100972.19
2023-04-02T12:00:18.170Z,100984.38
2023-04-02T12:02:59.547Z,100987.63
2023-04-02T12:05:28.481Z,100990.78
2023-04-02T12:08:07.414Z,100994.28
2023-04-02T12:10:51.422Z,101008.56
2023-04-02T12:13:20.669Z,100994.84
2023-04-02T12:15:48.767Z,101009.66
2023-04-02T12:18:20.698Z,101007.56
2023-04-02T12:20:50.866Z,101013.19
2023-04-02T12:23:24.033Z,101006.53
2023-04-02T12:25:58.282Z,101020.66
2023-04-02T12:28:28.893Z,101022.75
2023-04-02T12:31:04.457Z,101016.13
2023-04-02T12:33:37.277Z,101025.84
2023-04-02T12:36:09.809Z,101037.28
2023-04-02T12:38:45.223Z,101046.00
2023-04-02T12:41:24.037Z,101054.44
2023-04-02T12:43:58.475Z,101051.47
2023-04-02T12:46:26.826Z,101056.78
2023-04-02T12:48:56.777Z,101061.44
2023-04-02T12:51:25.324Z,101067.28
2023-04-02T12:53:54.324Z,101071.66
2023-04-02T12:56:23.070Z,101078.16
2023-04-02T12:58:54.831Z,101075.13
2023-04-02T13:01:24.609Z,101077.78
2023-04-02T13:04:04.637Z,101081.59
2023-04-02T13:06:32.794Z,101084.13
2023-04-02T13:09:01.262Z,101082.53
2023-04-02T13:11:36.633Z,101085.44
2023-04-02T13:14:05.848Z,101090.44
2023-04-02T13:16:37.469Z,101103.47
2023-04-02T13:19:22.722Z,101097.72
2023-04-02T13:21:50.359Z,101100.31
2023-04-02T13:24:19.852Z,101109.69
2023-04-02T13:26:49.415Z,101102.88
2023-04-02T13:29:26.314Z,101110.16
2023-04-02T13:31:55.663Z,101112.81
2023-04-02T13:34:24.820Z,101111.22
2023-04-02T13:36:52.474Z,101114.00
2023-04-02T13:39:20.459Z,101115.50
2023-04-02T13:41:50.022Z,101115.66
2023-04-02T13:44:22.828Z,101118.56
2023-04-02T13:46:50.905Z,101118.25
2023-04-02T13:49:18.876Z,101121.50
2023-04-02T13:51:49.634Z,101125.72
2023-04-02T13:54:22.307Z,101131.66
2023-04-02T13:56:49.879Z,101129.97
2023-04-02T13:59:17.456Z,101140.09
2023-04-02T14:01:46.353Z,101147.88
2023-04-02T14:04:16.318Z,101150.44
2023-04-02T14:07:07.515Z,101156.84
2023-04-02T14:09:40.343Z,101161.84
2023-04-02T14:12:12.377Z,101164.38
2023-04-02T14:14:56.175Z,101173.78
2023-04-02T14:17:30.774Z,101175.50
2023-04-02T14:20:13.478Z,101173.53
2023-04-02T14:22:50.605Z,101182.59
2023-04-02T14:25:25.834Z,101202.56
2023-04-02T14:27:58.768Z,101187.63
2023-04-02T14:30:28.657Z,101183.34
2023-04-02T14:32:59.103Z,101196.19
2023-04-02T14:35:30.564Z,101191.19
2023-04-02T14:38:06.058Z,101190.63
2023-04-02T14:40:37.519Z,101206.66
2023-04-02T14:43:08.330Z,101202.94
2023-04-02T14:45:48.292Z,101212.66
2023-04-02T14:48:25.699Z,101212.97
2023-04-02T14:50:56.456Z,101219.69
2023-04-02T14:53:28.559Z,101235.00
2023-04-02T14:55:57.204Z,101240.28
2023-04-02T14:58:27.785Z,101233.06
2023-04-02T15:00:59.034Z,101236.84
2023-04-02T15:03:30.813Z,101246.44
2023-04-02T15:06:00.193Z,101246.00
2023-04-02T15:08:30.972Z,101250.75
2023-04-02T15:11:05.698Z,101260.38
2023-04-02T15:13:37.991Z,101262.03
2023-04-02T15:16:11.568Z,101263.44
2023-04-02T15:18:39.323Z,101264.84
2023-04-02T15:21:16.495Z,101269.31
2023-04-02T15:23:54.826Z,101273.78
2023-04-02T15:26:27.099Z,101260.97
2023-04-02T15:29:01.002Z,101272.53
2023-04-02T15:31:29.280Z,101282.84
2023-04-02T15:34:09.083Z,101276.44
2023-04-02T15:37:09.179Z,101279.50
2023-04-02T15:39:59.511Z,101283.00
2023-04-02T15:42:29.255Z,101299.41
2023-04-02T15:45:25.581Z,101289.38
2023-04-02T15:48:14.879Z,101296.59
2023-04-02T15:50:48.162Z,101299.81
2023-04-02T15:53:27.817Z,101308.84
2023-04-02T15:56:03.177Z,101300.50
2023-04-02T15:58:44.298Z,101301.47
2023-04-02T16:01:16.314Z,101306.47
2023-04-02T16:04:07.789Z,101315.66
2023-04-02T16:06:43.322Z,101323.41
2023-04-02T16:09:19.454Z,101321.94
2023-04-02T16:11:48.779Z,101321.78
2023-04-02T16:14:25.629Z,101332.78
2023-04-02T16:16:54.713Z,101339.72
2023-04-02T16:19:27.348Z,101335.56
2023-04-02T16:22:02.432Z,101344.72
2023-04-02T16:24:29.911Z,101338.19
2023-04-02T16:27:04.669Z,101346.25
2023-04-02T16:29:53.380Z,101345.56
2023-04-02T16:32:35.899Z,101354.91
2023-04-02T16:35:33.432Z,101361.13
2023-04-02T16:38:07.738Z,101363.47
2023-04-02T16:40:45.165Z,101369.78
2023-04-02T16:43:26.019Z,101368.66
2023-04-02T16:45:57.740Z,101371.94
2023-04-02T16:48:30.789Z,101379.31
2023-04-02T16:51:06.928Z,101382.78
2023-04-02T16:53:50.952Z,101386.97
2023-04-02T16:56:41.515Z,101393.81
2023-04-02T16:59:16.698Z,101403.66
2023-04-02T17:01:48.992Z,101407.03
2023-04-02T17:04:29.087Z,101407.28
2023-04-02T17:07:01.899Z,101414.44
2023-04-02T17:09:35.424Z,101420.34
2023-04-02T17:12:06.122Z,101432.03
2023-04-02T17:14:39.308Z,101433.69
2023-04-02T17:17:06.835Z,101434.06
2023-04-02T17:19:34.350Z,101444.28
2023-04-02T17:22:03.414Z,101448.72
2023-04-02T17:24:34.748Z,101452.47
2023-04-02T17:27:08.224Z,101466.97
2023-04-02T17:29:39.243Z,101468.91
2023-04-02T17:32:14.895Z,101467.69
2023-04-02T17:34:42.309Z,101472.13
2023-04-02T17:37:19.153Z,101482.13
2023-04-02T17:39:53.726Z,101488.50
2023-04-02T17:42:26.469Z,101489.06
2023-04-02T17:45:02.896Z,101497.22
2023-04-02T17:47:36.790Z,101506.34
2023-04-02T17:50:40.266Z,101505.69
2023-04-02T17:53:18.870Z,101506.72
2023-04-02T17:55:53.839Z,101508.22
2023-04-02T17:58:36.650Z,101504.88
2023-04-02T18:01:08.144Z,101524.22
2023-04-02T18:03:49.117Z,101531.28
2023-04-02T18:06:20.863Z,101521.44
2023-04-02T18:08:58.469Z,101531.88
2023-04-02T18:11:32.555Z,101539.94
2023-04-02T18:14:01.225Z,101535.16
2023-04-02T18:16:49.514Z,101556.44
2023-04-02T18:19:19.002Z,101556.81
2023-04-02T18:21:52.214Z,101559.72
2023-04-02T18:24:43.257Z,101571.28
2023-04-02T18:27:22.497Z,101571.28
2023-04-02T18:29:56.301Z,101575.97
2023-04-02T18:32:56.781Z,101571.28
2023-04-02T18:35:26.578Z,101588.53
2023-04-02T18:38:07.778Z,101584.22
2023-04-02T18:40:41.839Z,101579.53
2023-04-02T18:43:19.984Z,101594.78
2023-04-02T18:45:56.985Z,101602.22
2023-04-02T18:48:35.366Z,101602.72
2023-04-02T18:51:04.319Z,101605.22
2023-04-02T18:53:33.730Z,101611.38
2023-04-02T18:56:04.713Z,101617.59
2023-04-02T18:58:37.322Z,101621.22
2023-04-02T19:01:05.651Z,101625.25
2023-04-02T19:03:39.215Z,101628.88
2023-04-02T19:06:10.397Z,101624.56
2023-04-02T19:08:42.912Z,101645.00
2023-04-02T19:11:13.815Z,101633.44
2023-04-02T19:13:41.510Z,101635.28
2023-04-02T19:16:22.653Z,101635.41
2023-04-02T19:18:57.384Z,101643.25
2023-04-02T19:21:34.979Z,101640.88
2023-04-02T19:24:12.235Z,101646.28
2023-04-02T19:26:45.310Z,101645.44
2023-04-02T19:29:21.262Z,101655.63
2023-04-02T19:31:51.067Z,101661.75
2023-04-02T19:34:24.399Z,101658.38
2023-04-02T19:36:55.568Z,101669.94
2023-04-02T19:39:39.514Z,101671.16
2023-04-02T19:42:11.983Z,101670.31
2023-04-02T19:44:44.030Z,101671.16
2023-04-02T19:47:13.481Z,101676.31
2023-04-02T19:49:42.305Z,101688.56
2023-04-02T19:52:09.784Z,101681.47
2023-04-02T19:54:38.450Z,101678.84
2023-04-02T19:57:06.375Z,101680.25
2023-04-02T19:59:34.089Z,101675.69
2023-04-02T20:02:05.704Z,101679.00
2023-04-02T20:04:33.324Z,101683.75
2023-04-02T20:07:02.153Z,101683.88
2023-04-02T20:09:30.130Z,101682.88
2023-04-02T20:11:57.602Z,101693.47
2023-04-02T20:14:25.122Z,101691.19
2023-04-02T20:16:52.796Z,101694.94
2023-04-02T20:19:20.592Z,101691.56
2023-04-02T20:21:48.093Z,101686.78
2023-04-02T20:24:16.936Z,101696.72
2023-04-02T20:26:44.396Z,101685.84
2023-04-02T20:29:11.892Z,101697.34
2023-04-02T20:31:39.421Z,101700.13
2023-04-02T20:34:08.518Z,101709.75
2023-04-02T20:36:36.365Z,101711.31
2023-04-02T20:39:07.105Z,101727.88
2023-04-02T20:41:35.930Z,101726.47
2023-04-02T20:44:03.397Z,101731.28
2023-04-02T20:46:31.078Z,101738.50
2023-04-02T20:48:58.585Z,101736.81
2023-04-02T20:51:26.406Z,101746.66
2023-04-02T20:53:53.992Z,101754.84
2023-04-02T20:56:23.229Z,101753.75
2023-04-02T20:58:52.060Z,101759.38
2023-04-02T21:01:21.165Z,101764.19
2023-04-02T21:03:49.190Z,101769.94
2023-04-02T21:06:18.978Z,101776.31
2023-04-02T21:08:46.784Z,101776.56
2023-04-02T21:11:14.384Z,101775.34
2023-04-02T21:13:44.026Z,101770.59
2023-04-02T21:16:17.062Z,101766.38
2023-04-02T21:18:44.995Z,101777.63
2023-04-02T21:21:14.238Z,101776.44
2023-04-02T21:23:42.577Z,101778.72
2023-04-02T21:26:12.567Z,101774.63
2023-04-02T21:28:40.332Z,101777.03
2023-04-02T21:31:10.678Z,101775.59
2023-04-02T21:33:41.267Z,101781.84
2023-04-02T21:36:10.279Z,101780.03
2023-04-02T21:38:38.446Z,101778.13
2023-04-02T21:41:14.595Z,101783.41
2023-04-02T21:43:42.254Z,101789.53
2023-04-02T21:46:10.311Z,101785.78
2023-04-02T21:48:40.516Z,101788.69
2023-04-02T21:51:09.544Z,101783.16
2023-04-02T21:53:37.406Z,101781.50
2023-04-02T21:56:06.337Z,101792.75
2023-04-02T21:58:33.998Z,101790.97
2023-04-02T22:01:01.871Z,101791.69
2023-04-02T22:03:31.936Z,101792.28
2023-04-02T22:06:06.698Z,101790.13
2023-04-02T22:08:34.661Z,101781.59
2023-04-02T22:11:07.361Z,101787.50
2023-04-02T22:13:34.878Z,101792.41
2023-04-02T22:16:05.681Z,101785.66
2023-04-02T22:18:34.997Z,101795.63
2023-04-02T22:21:03.909Z,101792.75
2023-04-02T22:23:31.430Z,101792.88
2023-04-02T22:25:59.849Z,101780.41
2023-04-02T22:28:28.176Z,101787.00
2023-04-02T22:30:56.219Z,101789.66
2023-04-02T22:33:23.782Z,101785.56
2023-04-02T22:35:52.354Z,101787.25
2023-04-02T22:38:21.240Z,101790.09
2023-04-02T22:40:48.697Z,101786.53
2023-04-02T22:43:16.228Z,101787.09
2023-04-02T22:45:45.483Z,101793.72
2023-04-02T22:48:12.927Z,101797.44
2023-04-02T22:50:40.550Z,101788.06
2023-04-02T22:53:08.047Z,101784.81
2023-04-02T22:55:36.870Z,101789.28
2023-04-02T22:58:04.291Z,101783.03
2023-04-02T23:00:31.852Z,101793.72
2023-04-02T23:02:59.399Z,101785.69
2023-04-02T23:05:27.136Z,101787.94
2023-04-02T23:07:54.724Z,101789.63
2023-04-02T23:10:22.250Z,101788.19
2023-04-02T23:12:51.133Z,101790.09
2023-04-02T23:15:18.706Z,101795.66
2023-04-02T23:17:46.212Z,101791.31
2023-04-02T23:20:14.042Z,101791.81
2023-04-02T23:22:41.550Z,101792.91
2023-04-02T23:25:09.322Z,101795.53
2023-04-02T23:27:36.968Z,101793.97
2023-04-02T23:30:08.664Z,101790.47
2023-04-02T23:32:36.168Z,101794.94
2023-04-02T23:35:03.650Z,101795.63
2023-04-02T23:37:31.270Z,101794.44
2023-04-02T23:39:58.739Z,101791.56
2023-04-02T23:42:27.237Z,101797.31
2023-04-02T23:44:55.485Z,101798.28
2023-04-02T23:47:24.271Z,101796.00
2023-04-02T23:49:51.730Z,101799.63
2023-04-02T23:52:19.350Z,101796.88
2023-04-02T23:54:46.766Z,101791.19
2023-04-02T23:57:14.971Z,101795.78
2023-04-02T23:59:42.574Z,101792.03
